createdAt,value
2018-04-08T00:01:40.946Z,4.03
2018-04-08T00:04:10.280Z,4.13
2018-04-08T00:06:38.691Z,4.33
2018-04-08T00:09:07.864Z,4.07
2018-04-08T00:11:36.974Z,4.20
2018-04-08T00:14:06.958Z,3.40
2018-04-08T00:16:36.211Z,3.70
2018-04-08T00:19:04.982Z,3.97
2018-04-08T00:21:34.625Z,3.87
2018-04-08T00:24:03.232Z,3.90
2018-04-08T00:26:32.080Z,3.90
2018-04-08T00:29:01.273Z,4.33
2018-04-08T00:31:30.419Z,3.97
2018-04-08T00:33:59.542Z,4.47
2018-04-08T00:36:29.328Z,4.30
2018-04-08T00:38:58.516Z,4.40
2018-04-08T00:41:28.178Z,4.47
2018-04-08T00:43:56.564Z,4.53
2018-04-08T00:46:25.062Z,5.10
2018-04-08T00:48:53.971Z,24.90
2018-04-08T00:51:24.018Z,10.47
2018-04-08T00:54:04.672Z,6.03
2018-04-08T00:56:34.160Z,5.33
2018-04-08T00:59:03.970Z,5.73
2018-04-08T01:01:34.036Z,5.90
2018-04-08T01:04:02.856Z,5.37
2018-04-08T01:06:32.642Z,4.60
2018-04-08T01:09:02.246Z,5.03
2018-04-08T01:11:32.215Z,4.77
2018-04-08T01:14:02.058Z,5.27
2018-04-08T01:16:31.211Z,6.07
2018-04-08T01:19:01.303Z,5.27
2018-04-08T01:21:30.482Z,5.30
2018-04-08T01:23:58.889Z,6.50
2018-04-08T01:26:28.139Z,6.47
2018-04-08T01:28:56.912Z,6.80
2018-04-08T01:31:25.506Z,6.70
2018-04-08T01:33:55.278Z,5.97
2018-04-08T01:36:24.356Z,5.27
2018-04-08T01:38:54.362Z,5.27
2018-04-08T01:41:23.558Z,5.87
2018-04-08T01:43:51.936Z,5.43
2018-04-08T01:46:21.884Z,5.10
2018-04-08T01:48:50.308Z,5.73
2018-04-08T01:51:19.377Z,5.10
2018-04-08T01:53:48.145Z,5.30
2018-04-08T01:56:18.852Z,5.30
2018-04-08T01:58:48.235Z,5.20
2018-04-08T02:01:17.860Z,5.50
2018-04-08T02:03:46.462Z,5.43
2018-04-08T02:06:17.247Z,5.07
2018-04-08T02:08:45.919Z,5.30
2018-04-08T02:11:15.613Z,4.80
2018-04-08T02:13:45.594Z,4.90
2018-04-08T02:16:13.999Z,5.13
2018-04-08T02:18:42.657Z,5.43
2018-04-08T02:21:11.011Z,5.40
2018-04-08T02:23:40.082Z,5.20
2018-04-08T02:26:08.702Z,4.90
2018-04-08T02:28:37.977Z,5.33
2018-04-08T02:31:06.444Z,4.70
2018-04-08T02:33:35.520Z,4.70
2018-04-08T02:36:05.846Z,4.90
2018-04-08T02:38:35.252Z,5.00
2018-04-08T02:41:05.129Z,4.43
2018-04-08T02:43:35.851Z,4.97
2018-04-08T02:46:04.263Z,4.47
2018-04-08T02:48:34.463Z,4.60
2018-04-08T02:51:03.048Z,5.23
2018-04-08T02:53:33.338Z,5.00
2018-04-08T02:56:02.067Z,5.03
2018-04-08T02:58:30.829Z,5.03
2018-04-08T03:00:59.654Z,4.83
2018-04-08T03:03:28.951Z,5.10
2018-04-08T03:05:57.601Z,4.83
2018-04-08T03:08:26.663Z,4.47
2018-04-08T03:10:55.071Z,4.70
2018-04-08T03:13:23.390Z,4.47
2018-04-08T03:15:52.777Z,4.13
2018-04-08T03:18:21.164Z,4.60
2018-04-08T03:20:50.332Z,4.43
2018-04-08T03:23:21.014Z,4.07
2018-04-08T03:25:49.420Z,4.57
2018-04-08T03:28:19.400Z,4.23
2018-04-08T03:30:48.735Z,4.37
2018-04-08T03:33:17.243Z,4.43
2018-04-08T03:35:46.430Z,4.53
2018-04-08T03:38:14.806Z,4.70
2018-04-08T03:40:44.237Z,4.77
2018-04-08T03:43:13.197Z,4.43
2018-04-08T03:45:42.627Z,4.13
2018-04-08T03:48:11.980Z,4.47
2018-04-08T03:50:41.368Z,4.83
2018-04-08T03:53:11.086Z,5.00
2018-04-08T03:55:39.447Z,4.77
2018-04-08T03:58:07.852Z,5.00
2018-04-08T04:00:38.046Z,5.10
2018-04-08T04:03:07.370Z,5.80
2018-04-08T04:05:37.236Z,5.13
2018-04-08T04:08:05.638Z,4.43
2018-04-08T04:10:34.895Z,4.80
2018-04-08T04:13:04.588Z,4.30
2018-04-08T04:15:32.984Z,4.53
2018-04-08T04:18:02.773Z,4.33
2018-04-08T04:20:43.010Z,4.23
2018-04-08T04:23:23.785Z,5.30
2018-04-08T04:26:04.906Z,5.03
2018-04-08T04:28:33.620Z,4.60
2018-04-08T04:31:02.039Z,4.57
2018-04-08T04:33:30.961Z,4.77
2018-04-08T04:36:00.720Z,4.53
2018-04-08T04:38:29.859Z,5.33
2018-04-08T04:40:59.495Z,4.57
2018-04-08T04:43:28.733Z,4.77
2018-04-08T04:45:57.571Z,4.90
2018-04-08T04:48:26.883Z,4.90
2018-04-08T04:50:56.997Z,4.77
2018-04-08T04:53:25.342Z,4.80
2018-04-08T04:55:53.695Z,4.37
2018-04-08T04:58:22.770Z,4.53
2018-04-08T05:00:51.919Z,5.03
2018-04-08T05:03:20.368Z,5.23
2018-04-08T05:05:49.893Z,4.80
2018-04-08T05:08:18.951Z,5.30
2018-04-08T05:10:47.306Z,5.00
2018-04-08T05:13:15.677Z,4.93
2018-04-08T05:15:44.859Z,4.77
2018-04-08T05:18:13.996Z,5.07
2018-04-08T05:20:43.858Z,5.00
2018-04-08T05:23:12.307Z,5.27
2018-04-08T05:25:41.741Z,5.77
2018-04-08T05:28:10.926Z,5.20
2018-04-08T05:30:39.295Z,5.03
2018-04-08T05:33:08.417Z,5.20
2018-04-08T05:35:36.842Z,4.87
2018-04-08T05:38:06.367Z,5.63
2018-04-08T05:40:34.876Z,5.40
2018-04-08T05:43:04.355Z,5.37
2018-04-08T05:45:33.987Z,5.20
2018-04-08T05:48:03.652Z,5.47
2018-04-08T05:50:32.475Z,5.60
2018-04-08T05:53:01.782Z,5.53
2018-04-08T05:55:30.963Z,5.00
2018-04-08T05:57:59.623Z,5.47
2018-04-08T06:00:28.815Z,5.53
2018-04-08T06:02:58.206Z,5.50
2018-04-08T06:05:26.948Z,5.73
2018-04-08T06:07:55.810Z,5.43
2018-04-08T06:10:24.510Z,5.23
2018-04-08T06:12:54.119Z,5.90
2018-04-08T06:15:23.658Z,4.67
2018-04-08T06:17:52.385Z,4.93
2018-04-08T06:20:22.772Z,5.27
2018-04-08T06:22:51.190Z,6.07
2018-04-08T06:25:19.517Z,6.00
2018-04-08T06:27:48.255Z,5.63
2018-04-08T06:30:16.721Z,5.57
2018-04-08T06:32:45.302Z,5.60
2018-04-08T06:35:15.093Z,6.23
2018-04-08T06:37:44.386Z,5.83
2018-04-08T06:40:13.219Z,5.80
2018-04-08T06:42:41.650Z,5.87
2018-04-08T06:45:10.485Z,5.97
2018-04-08T06:47:39.608Z,5.53
2018-04-08T06:50:09.131Z,6.30
2018-04-08T06:52:38.247Z,5.70
2018-04-08T06:55:08.779Z,5.93
2018-04-08T06:57:37.997Z,5.43
2018-04-08T07:00:06.572Z,5.47
2018-04-08T07:02:36.467Z,5.80
2018-04-08T07:05:04.803Z,6.00
2018-04-08T07:07:33.766Z,5.10
2018-04-08T07:10:02.376Z,5.50
2018-04-08T07:12:32.758Z,5.93
2018-04-08T07:15:01.088Z,5.57
2018-04-08T07:17:29.439Z,5.90
2018-04-08T07:19:58.619Z,6.10
2018-04-08T07:22:28.867Z,6.00
2018-04-08T07:24:58.719Z,5.53
2018-04-08T07:27:27.118Z,6.03
2018-04-08T07:29:56.646Z,5.70
2018-04-08T07:32:24.990Z,6.57
2018-04-08T07:34:55.186Z,6.23
2018-04-08T07:37:23.552Z,5.77
2018-04-08T07:39:51.922Z,6.07
2018-04-08T07:42:21.172Z,6.00
2018-04-08T07:44:50.138Z,5.93
2018-04-08T07:47:19.670Z,6.07
2018-04-08T07:49:48.476Z,6.80
2018-04-08T07:52:17.774Z,6.00
2018-04-08T07:54:46.442Z,6.37
2018-04-08T07:57:14.788Z,5.33
2018-04-08T07:59:45.696Z,6.10
2018-04-08T08:02:14.876Z,6.20
2018-04-08T08:04:43.299Z,5.87
2018-04-08T08:07:13.107Z,5.60
2018-04-08T08:09:42.639Z,5.80
2018-04-08T08:12:11.505Z,5.70
2018-04-08T08:14:40.494Z,5.73
2018-04-08T08:17:08.875Z,5.53
2018-04-08T08:19:37.276Z,5.57
2018-04-08T08:22:06.467Z,6.07
2018-04-08T08:27:08.732Z,5.63
2018-04-08T08:29:37.080Z,6.50
2018-04-08T08:32:05.945Z,6.17
2018-04-08T08:34:35.025Z,5.77
2018-04-08T08:37:04.255Z,5.03
2018-04-08T08:39:33.136Z,6.00
2018-04-08T08:42:03.385Z,5.00
2018-04-08T08:44:31.819Z,5.30
2018-04-08T08:47:00.142Z,5.57
2018-04-08T08:49:30.149Z,6.13
2018-04-08T08:51:59.187Z,5.77
2018-04-08T08:54:28.481Z,5.50
2018-04-08T08:56:56.895Z,6.43
2018-04-08T08:59:25.345Z,6.20
2018-04-08T09:01:54.308Z,5.10
2018-04-08T09:04:23.355Z,5.63
2018-04-08T09:06:52.660Z,5.50
2018-04-08T09:09:21.313Z,6.10
2018-04-08T09:11:49.749Z,5.93
2018-04-08T09:14:19.373Z,5.97
2018-04-08T09:16:50.000Z,5.60
2018-04-08T09:19:20.051Z,5.63
2018-04-08T09:21:51.452Z,5.60
2018-04-08T09:24:21.943Z,4.77
2018-04-08T09:26:51.394Z,5.73
2018-04-08T09:29:20.465Z,5.43
2018-04-08T09:31:49.127Z,5.80
2018-04-08T09:34:18.522Z,5.90
2018-04-08T09:36:47.357Z,5.37
2018-04-08T09:39:16.061Z,6.10
2018-04-08T09:41:46.742Z,5.47
2018-04-08T09:44:16.676Z,5.37
2018-04-08T09:46:46.928Z,6.03
2018-04-08T09:49:15.306Z,5.00
2018-04-08T09:51:43.666Z,5.53
2018-04-08T09:54:12.040Z,5.27
2018-04-08T09:56:42.898Z,5.87
2018-04-08T09:59:13.047Z,5.97
2018-04-08T10:01:47.666Z,5.43
2018-04-08T10:04:16.925Z,5.80
2018-04-08T10:06:46.134Z,5.30
2018-04-08T10:09:17.408Z,6.27
2018-04-08T10:11:48.164Z,5.40
2018-04-08T10:14:17.911Z,5.23
2018-04-08T10:16:47.882Z,5.43
2018-04-08T10:19:16.993Z,5.40
2018-04-08T10:21:46.221Z,5.47
2018-04-08T10:24:16.118Z,5.30
2018-04-08T10:26:44.677Z,5.00
2018-04-08T10:29:14.204Z,5.97
2018-04-08T10:31:44.537Z,5.23
2018-04-08T10:34:13.755Z,5.00
2018-04-08T10:36:42.087Z,5.17
2018-04-08T10:39:12.032Z,5.03
2018-04-08T10:41:41.324Z,5.23
2018-04-08T10:44:12.109Z,5.03
2018-04-08T10:46:41.362Z,4.83
2018-04-08T10:49:09.826Z,4.40
2018-04-08T10:51:41.693Z,4.77
2018-04-08T10:54:10.177Z,4.57
2018-04-08T10:56:40.422Z,4.73
2018-04-08T10:59:11.063Z,5.10
2018-04-08T11:01:39.496Z,5.10
2018-04-08T11:04:08.431Z,4.83
2018-04-08T11:06:36.806Z,4.90
2018-04-08T11:09:06.710Z,4.60
2018-04-08T11:11:36.517Z,4.37
2018-04-08T11:14:04.957Z,4.40
2018-04-08T11:16:34.039Z,4.67
2018-04-08T11:19:03.227Z,5.07
2018-04-08T11:21:32.137Z,4.50
2018-04-08T11:24:00.492Z,4.43
2018-04-08T11:26:29.381Z,4.37
2018-04-08T11:28:59.421Z,4.20
2018-04-08T11:31:29.496Z,5.10
2018-04-08T11:33:58.975Z,4.27
2018-04-08T11:36:28.247Z,5.13
2018-04-08T11:38:56.703Z,12.00
2018-04-08T11:41:25.480Z,6.60
2018-04-08T11:43:54.764Z,9.60
2018-04-08T11:46:23.863Z,4.60
2018-04-08T11:48:54.326Z,7.80
2018-04-08T11:51:24.354Z,7.60
2018-04-08T11:53:52.709Z,4.17
2018-04-08T11:56:21.353Z,5.17
2018-04-08T11:58:50.794Z,3.73
2018-04-08T12:01:19.739Z,4.10
2018-04-08T12:03:48.140Z,3.77
2018-04-08T12:06:17.321Z,3.63
2018-04-08T12:08:47.084Z,3.77
2018-04-08T12:11:16.436Z,4.20
2018-04-08T12:13:45.710Z,4.30
2018-04-08T12:16:14.596Z,4.30
2018-04-08T12:18:44.234Z,4.23
2018-04-08T12:21:13.697Z,3.70
2018-04-08T12:23:42.111Z,4.07
2018-04-08T12:26:21.082Z,4.00
2018-04-08T12:28:50.765Z,3.90
2018-04-08T12:31:20.067Z,4.03
2018-04-08T12:33:49.351Z,6.20
2018-04-08T12:36:24.522Z,4.50
2018-04-08T12:38:53.716Z,3.87
2018-04-08T12:41:23.983Z,5.33
2018-04-08T12:43:52.798Z,3.63
2018-04-08T12:46:22.048Z,4.30
2018-04-08T12:48:57.974Z,4.27
2018-04-08T12:51:33.597Z,3.83
2018-04-08T12:54:03.345Z,4.27
2018-04-08T12:56:32.986Z,3.60
2018-04-08T12:59:01.348Z,4.03
2018-04-08T13:01:29.697Z,4.20
2018-04-08T13:03:58.912Z,4.00
2018-04-08T13:06:27.968Z,3.80
2018-04-08T13:08:56.610Z,7.43
2018-04-08T13:11:25.830Z,4.13
2018-04-08T13:13:54.711Z,3.50
2018-04-08T13:16:24.354Z,3.30
2018-04-08T13:18:53.179Z,3.60
2018-04-08T13:21:22.821Z,3.83
2018-04-08T13:23:52.938Z,3.67
2018-04-08T13:26:21.870Z,3.43
2018-04-08T13:28:51.031Z,3.63
2018-04-08T13:31:20.172Z,3.60
2018-04-08T13:33:49.489Z,3.40
2018-04-08T13:36:18.622Z,3.87
2018-04-08T13:38:47.798Z,4.10
2018-04-08T13:41:17.569Z,4.17
2018-04-08T13:43:46.751Z,3.50
2018-04-08T13:46:17.700Z,3.33
2018-04-08T13:48:46.787Z,3.10
2018-04-08T13:51:15.301Z,2.90
2018-04-08T13:53:44.642Z,3.23
2018-04-08T13:56:13.957Z,3.70
2018-04-08T13:58:43.091Z,3.70
2018-04-08T14:01:12.453Z,3.50
2018-04-08T14:03:40.824Z,3.13
2018-04-08T14:06:09.969Z,3.13
2018-04-08T14:08:38.309Z,3.07
2018-04-08T14:11:06.781Z,3.17
2018-04-08T14:13:36.113Z,3.30
2018-04-08T14:16:04.698Z,2.97
2018-04-08T14:18:34.742Z,2.93
2018-04-08T14:21:04.443Z,3.00
2018-04-08T14:23:33.713Z,3.40
2018-04-08T14:26:02.070Z,3.50
2018-04-08T14:28:31.166Z,2.70
2018-04-08T14:31:03.876Z,3.10
2018-04-08T14:33:32.239Z,3.80
2018-04-08T14:36:02.387Z,3.10
2018-04-08T14:38:30.723Z,2.90
2018-04-08T14:40:59.509Z,3.50
2018-04-08T14:43:28.004Z,3.40
2018-04-08T14:45:56.405Z,3.33
2018-04-08T14:48:25.273Z,3.13
2018-04-08T14:50:54.285Z,2.83
2018-04-08T14:53:23.441Z,3.50
2018-04-08T14:55:52.098Z,3.53
2018-04-08T14:58:21.704Z,3.07
2018-04-08T15:00:52.805Z,3.30
2018-04-08T15:03:22.706Z,3.60
2018-04-08T15:05:52.218Z,2.90
2018-04-08T15:08:20.631Z,3.00
2018-04-08T15:10:49.031Z,2.83
2018-04-08T15:13:17.376Z,2.80
2018-04-08T15:15:46.467Z,3.30
2018-04-08T15:18:15.645Z,2.80
2018-04-08T15:20:44.530Z,2.97
2018-04-08T15:23:12.900Z,2.80
2018-04-08T15:25:42.509Z,2.87
2018-04-08T15:28:11.620Z,3.37
2018-04-08T15:30:41.132Z,3.03
2018-04-08T15:33:10.180Z,3.00
2018-04-08T15:35:38.604Z,3.20
2018-04-08T15:38:09.536Z,2.93
2018-04-08T15:40:38.073Z,2.87
2018-04-08T15:43:06.422Z,3.10
2018-04-08T15:45:35.691Z,2.90
2018-04-08T15:48:04.905Z,2.83
2018-04-08T15:50:34.400Z,3.33
2018-04-08T15:53:03.544Z,3.00
2018-04-08T15:55:31.909Z,3.60
2018-04-08T15:58:01.114Z,2.83
2018-04-08T16:00:30.489Z,2.83
2018-04-08T16:02:59.306Z,2.77
2018-04-08T16:05:27.870Z,2.60
2018-04-08T16:07:56.672Z,2.83
2018-04-08T16:10:27.383Z,2.20
2018-04-08T16:12:56.786Z,3.47
2018-04-08T16:15:25.213Z,3.20
2018-04-08T16:17:53.516Z,2.97
2018-04-08T16:20:21.868Z,3.00
2018-04-08T16:22:51.060Z,3.03
2018-04-08T16:25:20.311Z,3.17
2018-04-08T16:27:48.702Z,3.10
2018-04-08T16:30:17.265Z,3.00
2018-04-08T16:32:45.904Z,2.50
2018-04-08T16:35:14.611Z,2.70
2018-04-08T16:40:18.019Z,2.77
2018-04-08T16:42:47.005Z,2.63
2018-04-08T16:45:15.411Z,2.93
2018-04-08T16:47:43.752Z,3.00
2018-04-08T16:50:12.118Z,2.40
2018-04-08T16:52:41.771Z,2.90
2018-04-08T16:55:10.445Z,3.00
2018-04-08T16:57:40.314Z,2.50
2018-04-08T17:00:08.685Z,2.97
2018-04-08T17:02:38.539Z,2.70
2018-04-08T17:05:07.007Z,3.00
2018-04-08T17:07:35.803Z,2.83
2018-04-08T17:10:04.232Z,2.80
2018-04-08T17:12:33.804Z,2.80
2018-04-08T17:15:03.835Z,2.43
2018-04-08T17:17:33.700Z,3.07
2018-04-08T17:20:03.065Z,3.00
2018-04-08T17:22:31.553Z,2.67
2018-04-08T17:25:02.867Z,2.70
2018-04-08T17:27:33.721Z,3.10
2018-04-08T17:30:02.806Z,3.20
2018-04-08T17:32:31.976Z,2.80
2018-04-08T17:35:02.592Z,3.07
2018-04-08T17:37:31.352Z,2.80
2018-04-08T17:40:00.542Z,2.77
2018-04-08T17:42:28.929Z,3.00
2018-04-08T17:44:58.405Z,2.80
2018-04-08T17:47:27.139Z,2.40
2018-04-08T17:49:56.805Z,3.17
2018-04-08T17:52:25.140Z,2.47
2018-04-08T17:54:55.118Z,2.43
2018-04-08T17:57:23.450Z,2.70
2018-04-08T17:59:52.168Z,3.10
2018-04-08T18:02:22.536Z,2.73
2018-04-08T18:04:51.901Z,3.20
2018-04-08T18:07:20.262Z,2.77
2018-04-08T18:09:49.057Z,2.93
2018-04-08T18:12:17.675Z,3.07
2018-04-08T18:14:46.007Z,3.20
2018-04-08T18:17:16.375Z,3.07
2018-04-08T18:19:46.111Z,3.60
2018-04-08T18:22:14.560Z,3.20
2018-04-08T18:24:44.593Z,4.73
2018-04-08T18:27:13.719Z,10.03
2018-04-08T18:29:42.847Z,7.70
2018-04-08T18:32:11.190Z,5.30
2018-04-08T18:34:40.346Z,4.70
2018-04-08T18:37:08.706Z,4.47
2018-04-08T18:39:37.862Z,3.13
2018-04-08T18:42:06.306Z,3.30
2018-04-08T18:44:36.155Z,3.70
2018-04-08T18:47:05.313Z,3.43
2018-04-08T18:49:34.444Z,3.50
2018-04-08T18:52:03.255Z,6.50
2018-04-08T18:54:34.132Z,7.70
2018-04-08T18:57:03.467Z,4.63
2018-04-08T18:59:32.256Z,4.03
2018-04-08T19:02:02.351Z,4.63
2018-04-08T19:04:31.565Z,3.80
2018-04-08T19:07:00.819Z,28.83
2018-04-08T19:09:30.854Z,16.87
2018-04-08T19:12:00.823Z,15.97
2018-04-08T19:14:35.693Z,28.23
2018-04-08T19:17:05.011Z,10.40
2018-04-08T19:19:33.823Z,8.57
2018-04-08T19:22:03.136Z,8.20
2018-04-08T19:24:35.054Z,5.13
2018-04-08T19:27:03.709Z,5.53
2018-04-08T19:29:33.025Z,4.47
2018-04-08T19:32:02.319Z,6.90
2018-04-08T19:34:30.684Z,8.37
2018-04-08T19:36:59.101Z,6.07
2018-04-08T19:39:27.841Z,4.30
2018-04-08T19:41:56.156Z,4.90
2018-04-08T19:44:24.555Z,4.53
2018-04-08T19:46:53.639Z,3.80
2018-04-08T19:49:22.865Z,4.53
2018-04-08T19:51:51.243Z,4.43
2018-04-08T19:54:20.406Z,4.47
2018-04-08T19:56:48.844Z,4.33
2018-04-08T19:59:18.556Z,4.80
2018-04-08T20:01:49.334Z,5.00
2018-04-08T20:04:17.836Z,4.50
2018-04-08T20:06:47.572Z,4.40
2018-04-08T20:09:17.848Z,4.87
2018-04-08T20:11:46.172Z,4.67
2018-04-08T20:14:16.293Z,4.13
2018-04-08T20:16:44.646Z,4.20
2018-04-08T20:19:13.888Z,4.30
2018-04-08T20:21:42.522Z,4.00
2018-04-08T20:24:12.491Z,3.97
2018-04-08T20:26:41.296Z,3.70
2018-04-08T20:29:10.647Z,3.83
2018-04-08T20:31:40.981Z,4.00
2018-04-08T20:34:09.302Z,4.47
2018-04-08T20:36:38.096Z,4.00
2018-04-08T20:39:06.414Z,4.67
2018-04-08T20:41:36.984Z,6.53
2018-04-08T20:44:06.466Z,7.80
2018-04-08T20:46:35.456Z,9.97
2018-04-08T20:49:04.033Z,10.60
2018-04-08T20:51:33.335Z,11.93
2018-04-08T20:54:02.379Z,9.60
2018-04-08T20:56:31.583Z,5.73
2018-04-08T20:59:00.296Z,7.20
2018-04-08T21:01:29.599Z,6.37
2018-04-08T21:03:59.374Z,6.90
2018-04-08T21:06:27.747Z,6.50
2018-04-08T21:08:56.806Z,5.87
2018-04-08T21:11:26.038Z,5.20
2018-04-08T21:13:54.700Z,5.30
2018-04-08T21:16:23.324Z,4.77
2018-04-08T21:18:53.353Z,4.40
2018-04-08T21:21:21.805Z,4.20
2018-04-08T21:23:50.341Z,4.60
2018-04-08T21:26:21.337Z,3.93
2018-04-08T21:28:50.886Z,4.20
2018-04-08T21:31:19.372Z,4.10
2018-04-08T21:33:49.640Z,3.90
2018-04-08T21:36:18.346Z,4.77
2018-04-08T21:38:48.235Z,4.70
2018-04-08T21:41:17.914Z,4.47
2018-04-08T21:43:46.482Z,4.43
2018-04-08T21:46:15.342Z,4.70
2018-04-08T21:48:44.648Z,4.50
2018-04-08T21:51:13.731Z,4.87
2018-04-08T21:53:44.410Z,5.17
2018-04-08T21:56:13.518Z,5.13
2018-04-08T21:58:41.834Z,5.93
2018-04-08T22:01:18.122Z,6.77
2018-04-08T22:03:47.367Z,5.40
2018-04-08T22:06:16.828Z,5.80
2018-04-08T22:08:45.583Z,6.03
2018-04-08T22:11:13.950Z,5.87
2018-04-08T22:13:42.318Z,5.20
2018-04-08T22:16:12.306Z,5.10
2018-04-08T22:18:40.688Z,4.73
2018-04-08T22:21:09.699Z,5.80
2018-04-08T22:23:38.094Z,5.43
2018-04-08T22:26:07.621Z,5.27
2018-04-08T22:28:36.565Z,4.93
2018-04-08T22:31:05.760Z,5.40
2018-04-08T22:33:35.110Z,6.03
2018-04-08T22:36:05.799Z,5.97
2018-04-08T22:38:34.128Z,5.60
2018-04-08T22:41:02.781Z,5.73
2018-04-08T22:43:32.358Z,5.13
2018-04-08T22:46:02.996Z,4.90
2018-04-08T22:48:31.915Z,5.23
2018-04-08T22:51:01.242Z,5.30
2018-04-08T22:53:31.604Z,5.07
2018-04-08T22:56:00.801Z,4.80
2018-04-08T22:58:30.042Z,5.03
2018-04-08T23:00:59.318Z,4.47
2018-04-08T23:03:28.948Z,4.30
2018-04-08T23:05:57.310Z,4.53
2018-04-08T23:08:26.431Z,4.50
2018-04-08T23:10:55.710Z,4.50
2018-04-08T23:13:24.067Z,4.30
2018-04-08T23:15:53.211Z,4.50
2018-04-08T23:18:22.995Z,4.70
2018-04-08T23:20:53.635Z,4.93
2018-04-08T23:23:24.865Z,4.90
2018-04-08T23:25:53.267Z,4.70
2018-04-08T23:28:22.943Z,4.57
2018-04-08T23:30:52.661Z,5.03
2018-04-08T23:33:22.011Z,5.07
2018-04-08T23:35:51.274Z,4.27
2018-04-08T23:38:19.662Z,4.63
2018-04-08T23:40:49.829Z,4.90
2018-04-08T23:43:20.861Z,4.77
2018-04-08T23:45:49.204Z,4.30
2018-04-08T23:48:17.555Z,4.60
2018-04-08T23:50:46.236Z,4.63
2018-04-08T23:53:15.854Z,4.47
2018-04-08T23:55:44.497Z,4.13
2018-04-08T23:58:12.854Z,4.67
